Mangalore Composite, Victoria

4:54 AM AEDT on March 30, 2015 (GMT +1100)
Broadford | | Change Station
CLOSE
Current Station
Personal Weather Station
Location: Broadford, VICTORIA
Elevation: 741 ft
Nearby Weather Stations

Elev 741 ft 37.21 °S, 145.06 °E | Updated 30 seconds ago

Clear
Clear
46.4 °F
Feels Like 46 °F
N
2.0
Wind Variable Wind from South
Gusts 3.0 mph

Today
High -- | Low -- °F
--% Chance of Precip.
Yesterday
High -- | Low -- °F
Precip. -- in
7:30 AM 7:16 PM
Waxing Gibbous, 73% visible
Pressure 30.21 in
Visibility -9999.0 miles
Clouds
Windchill 46 °F
Dew Point 44 °F
Humidity 90%
Rainfall 0.00 in
Snow Depth Not available.
UV Not available.
Pollen Not available.
Air Quality Not available.
Flu Activity Not available.
METAR YMML 291730Z 29001KT CAVOK 09/07 Q1023 NOSIG

More Conditions Fewer Conditions

Pressure 30.21 in
Visibility -9999.0 miles
Clouds
Windchill 46 °F
Dew Point 44 °F
Humidity 90%
Rainfall 0.00 in
Snow Depth Not available.
UV Not available.
Pollen Not available.
Air Quality Not available.
Flu Activity Not available.
METAR YMML 291730Z 29001KT CAVOK 09/07 Q1023 NOSIG

More Conditions Fewer Conditions

10-Day Weather Forecast

Almanac

Astronomy

Mar. 30, 2015 Rise Set
Actual Time
Civil Twilight
Nautical Twilight
Astronomical Twilight
Moon
Length of Visible Light
Length of Day
Tomorrow will be .
, % of the Moon is Illuminated

Today's Extremes

Country Highs Country Lows

Community

WunderPhotos

Upload Photos

1,809,307 photos uploaded!

WunderBlogs® & News

Nearby

Air Quality

  Air Quality AQ Index Pollutant
Not available.

Snow Depth

Station Depth Elevation

Earthquake Activity

City Distance Mag. Time & Date
Minimum magnitude displayed is 2.5.

Coastal Water Temperatures

Place Temperature

Stations

Nearby Weather Stations

Station Location Temp. Windchill Dew Point Humidity Wind Precip. Elev Updated Type